Alma, Kansas
Current Conditions -  °F | °C
As of 10:52 AM on Thursday 30 Oct 2014 (Local Time) from KMHK Reporting Station
Clear Clear  
Wind Chill: 62°   Ceiling: Unl
Heat Index: 62°   Visibility: 10mi
Dew Point: 38°   Wind: 14mph
Humidity: 41%   Direction: 350°N
Pressure: 30.1"   Gusts: 25mph
Location:  39.02°N, 96.29°W
Report Text: KMHK 301552Z 35012G22KT 10SM CLR 17/03 A3010 RMK AO2 SLP192 T01670033
Loading
Personal Weather Stations






























Interactive Weather Map
Tropical Storm Tracking
New forecast layout! Learn more

10-Day Weather Forecast

Advertisements
Track Severe Weather on mobile